Kezdőlap
METAR-TAF:

METAR-TAF

Repülőterek :

Yap, Mikronézia

földrajzi szélesség: 09-29N, földrajzi hosszúság: 138-05E, magasság: 28 m

Jelenlegi meteorológiai megfigyelések

A jelentés 48 perccel ezelõtt készült, 03:52 UTC
Különbözõ irányokból fújó szél 5 kt
Hőmérséklet 31°C
Páratartalom 63%
Légköri nyomás 1008 hPa
Látótávolság: 19.3 km
Kevés felhő 1600 lábon
Szórványos felhőzet 30000 lábon

METAR: PTYA 090352Z VRB05KT 12SM FEW016 SCT300 31/23 A2977 RMK MDT CU W SLP083 T03050232

Idő: 14:40 (04:40 UTC)

Előrejelzés

A jelentés 5 órával és 20 perccel ezelõtt készült, 23:20 UTC
Az előrejelzés 09-én 00 óra UTC és 09-én 24 óra UTC között érvényes
Északkeleti szél 5 kt
Látótávolság: 10 km
Kevés felhő 1600 lábon
Szórványos felhőzet 6000 lábon

TAF: PTYA 082320Z 0900/0924 05005KT P6SM FEW016 SCT060

Meteorológiai megfigyelések és előrejelzések több, mint 4000 repülőtéren (METAR és TAF jelentéseket).

A térképen piros és sárga pontok jelzik az elérhető meteorológiai állomásokat.

Mozgassa az egeret a pont fölött, hogy megjelenjen az állomás neve.

Azután kattintson az időjárási megfigyelések és előrejelzések megtekintéséhez.

A térkép megváltoztatása: kattintson a fekete keresztel jelölt zöld gombra ráközelítéshez, a vonallal jelölt zöld gombra távolításhoz, vagy a zöld nyilakra a szomszédos térképek eléréséhez.


METAR-TAF: